Jean, Nevada
Current Conditions -  °F | °C
As of 4:56 PM on Tuesday 25 Nov 2014 (Local Time) from KHND Reporting Station
Clear Clear  
Wind Chill: 56°   Ceiling: Unl
Heat Index: 56°   Visibility: 10mi
Dew Point: 16°   Wind: 0mph
Humidity: 21%   Direction: NA
Pressure: 30.37"   Gusts: NA
Location:  35.78°N, 115.32°W
Report Text: KHND 260056Z 00000KT 10SM CLR 13/M09 A3037 RMK AO2 T01331088 SLP290
Loading
Personal Weather Stations






























Interactive Weather Map New forecast layout! Learn more

10-Day Weather Forecast

Advertisements
Track Severe Weather on mobile